sensor_id;sensor_type;location;lat;lon;timestamp;temperature;humidity
39277;DHT22;63149;48.086;-1.606;2023-08-06T05:02:02;13.90;99.90
39277;DHT22;63149;48.086;-1.606;2023-08-06T05:04:29;13.80;99.90
39277;DHT22;63149;48.086;-1.606;2023-08-06T05:06:56;13.80;99.90
39277;DHT22;63149;48.086;-1.606;2023-08-06T05:09:23;13.80;99.90
39277;DHT22;63149;48.086;-1.606;2023-08-06T05:11:50;13.80;99.90
39277;DHT22;63149;48.086;-1.606;2023-08-06T05:14:16;13.80;99.90
39277;DHT22;63149;48.086;-1.606;2023-08-06T05:16:43;13.80;99.90
39277;DHT22;63149;48.086;-1.606;2023-08-06T05:19:12;13.80;99.90
39277;DHT22;63149;48.086;-1.606;2023-08-06T05:21:38;13.90;99.90
39277;DHT22;63149;48.086;-1.606;2023-08-06T05:24:05;13.90;99.90
39277;DHT22;63149;48.086;-1.606;2023-08-06T05:26:32;13.90;99.90
39277;DHT22;63149;48.086;-1.606;2023-08-06T05:29:00;13.90;99.90
39277;DHT22;63149;48.086;-1.606;2023-08-06T05:31:27;13.90;99.90
39277;DHT22;63149;48.086;-1.606;2023-08-06T05:33:54;13.90;99.90
39277;DHT22;63149;48.086;-1.606;2023-08-06T05:36:23;14.00;99.90
39277;DHT22;63149;48.086;-1.606;2023-08-06T05:38:50;14.00;99.90
39277;DHT22;63149;48.086;-1.606;2023-08-06T05:41:17;14.00;99.90
39277;DHT22;63149;48.086;-1.606;2023-08-06T05:43:44;14.00;99.90
39277;DHT22;63149;48.086;-1.606;2023-08-06T05:46:10;14.00;99.90
39277;DHT22;63149;48.086;-1.606;2023-08-06T05:48:37;14.00;99.90
39277;DHT22;63149;48.086;-1.606;2023-08-06T05:51:04;14.00;99.90
39277;DHT22;63149;48.086;-1.606;2023-08-06T05:53:32;14.00;99.90
39277;DHT22;63149;48.086;-1.606;2023-08-06T05:55:59;14.10;99.90
39277;DHT22;63149;48.086;-1.606;2023-08-06T05:58:26;14.10;99.90
39277;DHT22;63149;48.086;-1.606;2023-08-06T06:00:54;14.10;99.90
39277;DHT22;63149;48.086;-1.606;2023-08-06T06:03:21;14.10;99.90
39277;DHT22;63149;48.086;-1.606;2023-08-06T06:05:48;14.10;99.90
39277;DHT22;63149;48.086;-1.606;2023-08-06T06:08:15;14.20;99.90
39277;DHT22;63149;48.086;-1.606;2023-08-06T06:10:43;14.20;99.90
39277;DHT22;63149;48.086;-1.606;2023-08-06T06:13:10;14.20;99.90
39277;DHT22;63149;48.086;-1.606;2023-08-06T06:15:37;14.30;99.90
39277;DHT22;63149;48.086;-1.606;2023-08-06T06:18:04;14.30;99.90
39277;DHT22;63149;48.086;-1.606;2023-08-06T06:20:32;14.30;99.90
39277;DHT22;63149;48.086;-1.606;2023-08-06T06:22:59;14.40;99.90
39277;DHT22;63149;48.086;-1.606;2023-08-06T06:25:26;14.40;99.90
39277;DHT22;63149;48.086;-1.606;2023-08-06T06:27:54;14.50;99.90
39277;DHT22;63149;48.086;-1.606;2023-08-06T06:30:21;14.50;99.90
39277;DHT22;63149;48.086;-1.606;2023-08-06T06:32:48;14.50;99.90
39277;DHT22;63149;48.086;-1.606;2023-08-06T06:35:15;14.60;99.90
39277;DHT22;63149;48.086;-1.606;2023-08-06T06:37:42;14.60;99.90
39277;DHT22;63149;48.086;-1.606;2023-08-06T06:40:09;14.60;99.90
39277;DHT22;63149;48.086;-1.606;2023-08-06T06:42:36;14.60;99.90
39277;DHT22;63149;48.086;-1.606;2023-08-06T06:45:06;14.70;99.90
39277;DHT22;63149;48.086;-1.606;2023-08-06T06:47:33;14.70;99.90
39277;DHT22;63149;48.086;-1.606;2023-08-06T06:50:00;14.80;99.90
39277;DHT22;63149;48.086;-1.606;2023-08-06T06:52:27;14.80;99.90
39277;DHT22;63149;48.086;-1.606;2023-08-06T06:54:54;14.90;99.90
39277;DHT22;63149;48.086;-1.606;2023-08-06T06:57:21;14.90;99.90
39277;DHT22;63149;48.086;-1.606;2023-08-06T06:59:48;15.00;99.90
39277;DHT22;63149;48.086;-1.606;2023-08-06T07:02:16;15.00;99.90
39277;DHT22;63149;48.086;-1.606;2023-08-06T07:04:43;15.00;99.90
39277;DHT22;63149;48.086;-1.606;2023-08-06T07:07:10;15.10;99.90
39277;DHT22;63149;48.086;-1.606;2023-08-06T07:09:36;15.20;99.90
39277;DHT22;63149;48.086;-1.606;2023-08-06T07:12:04;15.20;99.90
39277;DHT22;63149;48.086;-1.606;2023-08-06T07:14:31;15.20;99.90
39277;DHT22;63149;48.086;-1.606;2023-08-06T07:16:58;15.20;99.90
39277;DHT22;63149;48.086;-1.606;2023-08-06T07:19:26;15.20;99.90
39277;DHT22;63149;48.086;-1.606;2023-08-06T07:21:53;15.30;99.90
39277;DHT22;63149;48.086;-1.606;2023-08-06T07:24:21;15.30;99.90
39277;DHT22;63149;48.086;-1.606;2023-08-06T07:26:48;15.40;99.90
39277;DHT22;63149;48.086;-1.606;2023-08-06T07:29:15;15.40;99.90
39277;DHT22;63149;48.086;-1.606;2023-08-06T07:31:45;15.40;99.90
39277;DHT22;63149;48.086;-1.606;2023-08-06T07:34:12;15.50;99.90
39277;DHT22;63149;48.086;-1.606;2023-08-06T07:36:40;15.50;99.90
39277;DHT22;63149;48.086;-1.606;2023-08-06T07:39:09;15.60;99.90
39277;DHT22;63149;48.086;-1.606;2023-08-06T07:41:36;15.60;99.90
39277;DHT22;63149;48.086;-1.606;2023-08-06T07:44:04;15.70;99.90
39277;DHT22;63149;48.086;-1.606;2023-08-06T07:46:31;15.70;99.90
39277;DHT22;63149;48.086;-1.606;2023-08-06T07:48:58;15.80;99.90
39277;DHT22;63149;48.086;-1.606;2023-08-06T07:51:25;15.90;99.90
39277;DHT22;63149;48.086;-1.606;2023-08-06T07:53:53;15.90;99.90
39277;DHT22;63149;48.086;-1.606;2023-08-06T07:56:20;16.00;99.90
39277;DHT22;63149;48.086;-1.606;2023-08-06T07:58:47;16.10;99.90
39277;DHT22;63149;48.086;-1.606;2023-08-06T08:01:14;16.20;99.90
39277;DHT22;63149;48.086;-1.606;2023-08-06T08:03:41;16.40;99.90
39277;DHT22;63149;48.086;-1.606;2023-08-06T08:06:07;16.50;99.90
39277;DHT22;63149;48.086;-1.606;2023-08-06T08:08:34;16.60;99.90
39277;DHT22;63149;48.086;-1.606;2023-08-06T08:11:05;16.70;99.90
39277;DHT22;63149;48.086;-1.606;2023-08-06T08:13:32;16.80;99.90
39277;DHT22;63149;48.086;-1.606;2023-08-06T08:16:00;16.90;99.90
39277;DHT22;63149;48.086;-1.606;2023-08-06T08:18:28;16.90;99.90
39277;DHT22;63149;48.086;-1.606;2023-08-06T08:20:55;17.00;99.90
39277;DHT22;63149;48.086;-1.606;2023-08-06T08:23:22;17.00;99.90
39277;DHT22;63149;48.086;-1.606;2023-08-06T08:25:49;17.10;99.90
39277;DHT22;63149;48.086;-1.606;2023-08-06T08:28:18;17.10;99.90
39277;DHT22;63149;48.086;-1.606;2023-08-06T08:30:45;17.10;99.90
39277;DHT22;63149;48.086;-1.606;2023-08-06T08:33:12;17.10;99.90
39277;DHT22;63149;48.086;-1.606;2023-08-06T08:35:38;17.00;99.90
39277;DHT22;63149;48.086;-1.606;2023-08-06T08:38:06;17.10;99.90
39277;DHT22;63149;48.086;-1.606;2023-08-06T08:40:33;17.10;99.90
39277;DHT22;63149;48.086;-1.606;2023-08-06T08:43:02;17.30;99.90
39277;DHT22;63149;48.086;-1.606;2023-08-06T08:45:32;17.30;99.90
39277;DHT22;63149;48.086;-1.606;2023-08-06T08:48:01;17.30;99.90
39277;DHT22;63149;48.086;-1.606;2023-08-06T08:50:28;17.40;99.90
39277;DHT22;63149;48.086;-1.606;2023-08-06T08:52:56;17.40;99.90
39277;DHT22;63149;48.086;-1.606;2023-08-06T08:55:23;17.40;99.90
39277;DHT22;63149;48.086;-1.606;2023-08-06T08:57:51;17.50;99.90
39277;DHT22;63149;48.086;-1.606;2023-08-06T09:00:18;17.60;99.90
39277;DHT22;63149;48.086;-1.606;2023-08-06T09:02:46;17.70;99.90
39277;DHT22;63149;48.086;-1.606;2023-08-06T09:05:14;17.80;99.90
39277;DHT22;63149;48.086;-1.606;2023-08-06T09:07:42;18.00;99.90
39277;DHT22;63149;48.086;-1.606;2023-08-06T09:10:11;18.20;99.90
39277;DHT22;63149;48.086;-1.606;2023-08-06T09:12:39;18.30;99.90
39277;DHT22;63149;48.086;-1.606;2023-08-06T09:15:07;18.40;99.90
39277;DHT22;63149;48.086;-1.606;2023-08-06T09:17:34;18.40;99.90
39277;DHT22;63149;48.086;-1.606;2023-08-06T09:20:11;18.50;99.90
39277;DHT22;63149;48.086;-1.606;2023-08-06T09:22:38;18.50;99.90
39277;DHT22;63149;48.086;-1.606;2023-08-06T09:25:07;18.70;99.90
39277;DHT22;63149;48.086;-1.606;2023-08-06T09:27:36;18.90;99.90
39277;DHT22;63149;48.086;-1.606;2023-08-06T09:30:04;19.00;99.90
39277;DHT22;63149;48.086;-1.606;2023-08-06T09:32:45;19.30;99.90
39277;DHT22;63149;48.086;-1.606;2023-08-06T09:35:17;19.50;99.90
39277;DHT22;63149;48.086;-1.606;2023-08-06T09:37:44;19.80;99.90
39277;DHT22;63149;48.086;-1.606;2023-08-06T09:40:27;20.00;99.90
39277;DHT22;63149;48.086;-1.606;2023-08-06T09:42:55;20.30;99.90
39277;DHT22;63149;48.086;-1.606;2023-08-06T09:45:22;20.50;99.90
39277;DHT22;63149;48.086;-1.606;2023-08-06T09:47:49;20.60;99.90
39277;DHT22;63149;48.086;-1.606;2023-08-06T09:50:18;20.60;99.90
39277;DHT22;63149;48.086;-1.606;2023-08-06T09:52:47;20.60;99.90
39277;DHT22;63149;48.086;-1.606;2023-08-06T09:55:14;20.70;99.90
39277;DHT22;63149;48.086;-1.606;2023-08-06T09:57:42;21.00;99.90
39277;DHT22;63149;48.086;-1.606;2023-08-06T10:00:10;21.20;99.90
39277;DHT22;63149;48.086;-1.606;2023-08-06T10:02:38;21.20;99.90
39277;DHT22;63149;48.086;-1.606;2023-08-06T10:05:07;21.20;99.90
39277;DHT22;63149;48.086;-1.606;2023-08-06T10:07:36;21.30;99.90
39277;DHT22;63149;48.086;-1.606;2023-08-06T10:10:05;21.20;99.90
39277;DHT22;63149;48.086;-1.606;2023-08-06T10:12:34;21.20;99.90
39277;DHT22;63149;48.086;-1.606;2023-08-06T10:15:06;21.10;99.90
39277;DHT22;63149;48.086;-1.606;2023-08-06T10:17:36;21.10;99.90
39277;DHT22;63149;48.086;-1.606;2023-08-06T10:20:05;21.00;99.90
39277;DHT22;63149;48.086;-1.606;2023-08-06T10:22:34;21.00;99.90
39277;DHT22;63149;48.086;-1.606;2023-08-06T10:25:02;21.00;99.90
39277;DHT22;63149;48.086;-1.606;2023-08-06T10:27:32;21.10;99.90
39277;DHT22;63149;48.086;-1.606;2023-08-06T10:30:22;21.10;99.90
39277;DHT22;63149;48.086;-1.606;2023-08-06T10:32:50;21.20;99.90
39277;DHT22;63149;48.086;-1.606;2023-08-06T10:35:35;21.40;99.90
39277;DHT22;63149;48.086;-1.606;2023-08-06T10:38:08;21.40;99.90
39277;DHT22;63149;48.086;-1.606;2023-08-06T10:40:36;21.60;99.90
39277;DHT22;63149;48.086;-1.606;2023-08-06T10:43:04;21.70;99.90
39277;DHT22;63149;48.086;-1.606;2023-08-06T10:45:34;21.90;99.90
39277;DHT22;63149;48.086;-1.606;2023-08-06T10:48:02;21.80;99.90
39277;DHT22;63149;48.086;-1.606;2023-08-06T10:50:29;21.80;99.90
39277;DHT22;63149;48.086;-1.606;2023-08-06T10:52:57;21.70;99.90
39277;DHT22;63149;48.086;-1.606;2023-08-06T10:55:27;21.70;99.90
39277;DHT22;63149;48.086;-1.606;2023-08-06T10:57:55;21.70;99.90
39277;DHT22;63149;48.086;-1.606;2023-08-06T11:00:23;21.70;99.90
39277;DHT22;63149;48.086;-1.606;2023-08-06T11:02:51;21.70;99.90
39277;DHT22;63149;48.086;-1.606;2023-08-06T11:05:18;21.80;99.90
39277;DHT22;63149;48.086;-1.606;2023-08-06T11:07:45;21.70;99.90
39277;DHT22;63149;48.086;-1.606;2023-08-06T11:10:14;21.80;99.90
39277;DHT22;63149;48.086;-1.606;2023-08-06T11:12:42;22.00;99.90
39277;DHT22;63149;48.086;-1.606;2023-08-06T11:15:10;22.00;99.90
39277;DHT22;63149;48.086;-1.606;2023-08-06T11:17:39;22.00;99.90
39277;DHT22;63149;48.086;-1.606;2023-08-06T11:20:07;22.10;99.90
39277;DHT22;63149;48.086;-1.606;2023-08-06T11:22:36;22.00;99.90
39277;DHT22;63149;48.086;-1.606;2023-08-06T11:25:04;22.00;99.90
39277;DHT22;63149;48.086;-1.606;2023-08-06T11:27:31;22.00;99.90
39277;DHT22;63149;48.086;-1.606;2023-08-06T11:29:59;21.90;99.90
39277;DHT22;63149;48.086;-1.606;2023-08-06T11:32:26;21.90;99.90
39277;DHT22;63149;48.086;-1.606;2023-08-06T11:34:54;22.00;99.90
39277;DHT22;63149;48.086;-1.606;2023-08-06T11:37:22;22.20;99.90
39277;DHT22;63149;48.086;-1.606;2023-08-06T11:39:50;22.30;99.90
39277;DHT22;63149;48.086;-1.606;2023-08-06T11:42:17;22.40;99.90
39277;DHT22;63149;48.086;-1.606;2023-08-06T11:44:44;22.60;99.90
39277;DHT22;63149;48.086;-1.606;2023-08-06T11:47:17;22.60;99.90
39277;DHT22;63149;48.086;-1.606;2023-08-06T11:49:46;22.50;99.90
39277;DHT22;63149;48.086;-1.606;2023-08-06T11:52:16;22.50;99.90
39277;DHT22;63149;48.086;-1.606;2023-08-06T11:54:45;22.60;99.90
39277;DHT22;63149;48.086;-1.606;2023-08-06T11:57:12;22.40;99.90
39277;DHT22;63149;48.086;-1.606;2023-08-06T11:59:39;22.40;99.90
39277;DHT22;63149;48.086;-1.606;2023-08-06T12:02:09;22.20;99.90
39277;DHT22;63149;48.086;-1.606;2023-08-06T12:05:03;22.30;99.90
39277;DHT22;63149;48.086;-1.606;2023-08-06T12:07:32;22.40;99.90
39277;DHT22;63149;48.086;-1.606;2023-08-06T12:09:59;22.40;99.90
39277;DHT22;63149;48.086;-1.606;2023-08-06T12:12:26;22.40;99.90
39277;DHT22;63149;48.086;-1.606;2023-08-06T12:14:54;22.40;99.90
39277;DHT22;63149;48.086;-1.606;2023-08-06T12:17:21;22.50;99.90
39277;DHT22;63149;48.086;-1.606;2023-08-06T12:19:48;22.50;99.90
39277;DHT22;63149;48.086;-1.606;2023-08-06T12:22:17;22.70;99.90
39277;DHT22;63149;48.086;-1.606;2023-08-06T12:24:45;22.80;99.90
39277;DHT22;63149;48.086;-1.606;2023-08-06T12:27:12;22.80;99.90
39277;DHT22;63149;48.086;-1.606;2023-08-06T12:29:41;22.80;99.90
39277;DHT22;63149;48.086;-1.606;2023-08-06T12:32:08;22.80;99.90
39277;DHT22;63149;48.086;-1.606;2023-08-06T12:34:35;22.80;99.90
39277;DHT22;63149;48.086;-1.606;2023-08-06T12:37:02;22.70;99.90
39277;DHT22;63149;48.086;-1.606;2023-08-06T12:39:31;22.60;99.90
39277;DHT22;63149;48.086;-1.606;2023-08-06T12:41:58;22.60;99.90
39277;DHT22;63149;48.086;-1.606;2023-08-06T12:44:25;22.60;99.90
39277;DHT22;63149;48.086;-1.606;2023-08-06T12:46:53;22.80;99.90
39277;DHT22;63149;48.086;-1.606;2023-08-06T12:49:20;22.90;99.90
39277;DHT22;63149;48.086;-1.606;2023-08-06T12:51:47;23.00;99.90
39277;DHT22;63149;48.086;-1.606;2023-08-06T12:54:15;23.00;99.90
39277;DHT22;63149;48.086;-1.606;2023-08-06T12:56:44;22.80;99.90
39277;DHT22;63149;48.086;-1.606;2023-08-06T12:59:11;22.80;99.90
39277;DHT22;63149;48.086;-1.606;2023-08-06T13:01:38;22.80;99.90
39277;DHT22;63149;48.086;-1.606;2023-08-06T13:04:05;22.90;99.90
39277;DHT22;63149;48.086;-1.606;2023-08-06T13:06:32;22.90;99.90
39277;DHT22;63149;48.086;-1.606;2023-08-06T13:09:01;22.90;99.90
39277;DHT22;63149;48.086;-1.606;2023-08-06T13:11:29;22.90;99.90
39277;DHT22;63149;48.086;-1.606;2023-08-06T13:14:04;22.90;99.90
39277;DHT22;63149;48.086;-1.606;2023-08-06T13:16:31;22.80;99.90
39277;DHT22;63149;48.086;-1.606;2023-08-06T13:18:58;22.70;99.90
39277;DHT22;63149;48.086;-1.606;2023-08-06T13:21:32;22.60;99.90
39277;DHT22;63149;48.086;-1.606;2023-08-06T13:23:59;22.60;99.90
39277;DHT22;63149;48.086;-1.606;2023-08-06T13:26:27;22.50;99.90
39277;DHT22;63149;48.086;-1.606;2023-08-06T13:28:54;22.50;99.90
39277;DHT22;63149;48.086;-1.606;2023-08-06T13:31:22;22.40;99.90
39277;DHT22;63149;48.086;-1.606;2023-08-06T13:33:49;22.40;99.90
39277;DHT22;63149;48.086;-1.606;2023-08-06T13:36:16;22.40;99.90
39277;DHT22;63149;48.086;-1.606;2023-08-06T13:38:43;22.30;99.90
39277;DHT22;63149;48.086;-1.606;2023-08-06T13:41:10;22.10;99.90
39277;DHT22;63149;48.086;-1.606;2023-08-06T13:43:38;22.10;99.90
39277;DHT22;63149;48.086;-1.606;2023-08-06T13:46:05;22.00;99.90
39277;DHT22;63149;48.086;-1.606;2023-08-06T13:48:33;21.90;99.90
39277;DHT22;63149;48.086;-1.606;2023-08-06T13:51:00;21.90;99.90
39277;DHT22;63149;48.086;-1.606;2023-08-06T13:53:27;21.90;99.90
39277;DHT22;63149;48.086;-1.606;2023-08-06T13:55:55;21.90;99.90
39277;DHT22;63149;48.086;-1.606;2023-08-06T13:58:23;21.90;99.90
39277;DHT22;63149;48.086;-1.606;2023-08-06T14:00:51;21.90;99.90
39277;DHT22;63149;48.086;-1.606;2023-08-06T14:03:19;21.90;99.90
39277;DHT22;63149;48.086;-1.606;2023-08-06T14:05:48;21.90;99.90
39277;DHT22;63149;48.086;-1.606;2023-08-06T14:08:15;21.80;99.90
39277;DHT22;63149;48.086;-1.606;2023-08-06T14:10:43;21.70;99.90
39277;DHT22;63149;48.086;-1.606;2023-08-06T14:13:10;21.70;99.90
39277;DHT22;63149;48.086;-1.606;2023-08-06T14:15:38;21.70;99.90
39277;DHT22;63149;48.086;-1.606;2023-08-06T14:18:06;21.60;99.90
39277;DHT22;63149;48.086;-1.606;2023-08-06T14:20:33;21.60;99.90
39277;DHT22;63149;48.086;-1.606;2023-08-06T14:23:02;21.60;99.90
39277;DHT22;63149;48.086;-1.606;2023-08-06T14:25:29;21.60;99.90
39277;DHT22;63149;48.086;-1.606;2023-08-06T14:27:56;21.60;99.90
39277;DHT22;63149;48.086;-1.606;2023-08-06T14:30:23;21.60;99.90
39277;DHT22;63149;48.086;-1.606;2023-08-06T14:32:50;21.50;99.90
39277;DHT22;63149;48.086;-1.606;2023-08-06T14:35:17;21.60;99.90
39277;DHT22;63149;48.086;-1.606;2023-08-06T14:37:44;21.60;99.90
39277;DHT22;63149;48.086;-1.606;2023-08-06T14:40:12;21.60;99.90
39277;DHT22;63149;48.086;-1.606;2023-08-06T14:42:39;21.50;99.90
39277;DHT22;63149;48.086;-1.606;2023-08-06T14:45:07;21.60;99.90
39277;DHT22;63149;48.086;-1.606;2023-08-06T14:47:34;21.60;99.90
39277;DHT22;63149;48.086;-1.606;2023-08-06T14:50:00;21.60;99.90
39277;DHT22;63149;48.086;-1.606;2023-08-06T14:52:27;21.60;99.90
39277;DHT22;63149;48.086;-1.606;2023-08-06T14:54:55;21.60;99.90
39277;DHT22;63149;48.086;-1.606;2023-08-06T14:57:23;21.60;99.90
39277;DHT22;63149;48.086;-1.606;2023-08-06T14:59:53;21.50;99.90
39277;DHT22;63149;48.086;-1.606;2023-08-06T15:02:20;21.60;99.90
39277;DHT22;63149;48.086;-1.606;2023-08-06T15:04:47;21.60;99.90
39277;DHT22;63149;48.086;-1.606;2023-08-06T15:07:14;21.60;99.90
39277;DHT22;63149;48.086;-1.606;2023-08-06T15:09:41;21.80;99.90
39277;DHT22;63149;48.086;-1.606;2023-08-06T15:12:08;21.80;99.90
39277;DHT22;63149;48.086;-1.606;2023-08-06T15:14:36;21.90;99.90
39277;DHT22;63149;48.086;-1.606;2023-08-06T15:17:03;22.00;99.90
39277;DHT22;63149;48.086;-1.606;2023-08-06T15:19:30;21.90;99.90
39277;DHT22;63149;48.086;-1.606;2023-08-06T15:21:57;21.70;99.90
39277;DHT22;63149;48.086;-1.606;2023-08-06T15:24:24;21.70;99.90
39277;DHT22;63149;48.086;-1.606;2023-08-06T15:26:51;21.60;99.90
39277;DHT22;63149;48.086;-1.606;2023-08-06T15:29:18;21.60;99.90
39277;DHT22;63149;48.086;-1.606;2023-08-06T15:31:46;21.60;99.90
39277;DHT22;63149;48.086;-1.606;2023-08-06T15:34:13;21.70;99.90
39277;DHT22;63149;48.086;-1.606;2023-08-06T15:36:40;21.60;99.90
39277;DHT22;63149;48.086;-1.606;2023-08-06T15:39:06;21.50;99.90
39277;DHT22;63149;48.086;-1.606;2023-08-06T15:41:33;21.40;99.90
39277;DHT22;63149;48.086;-1.606;2023-08-06T15:44:00;21.30;99.90
39277;DHT22;63149;48.086;-1.606;2023-08-06T15:46:27;21.20;99.90
39277;DHT22;63149;48.086;-1.606;2023-08-06T15:48:55;21.20;99.90
39277;DHT22;63149;48.086;-1.606;2023-08-06T15:51:22;21.20;99.90
39277;DHT22;63149;48.086;-1.606;2023-08-06T15:53:49;21.00;99.90
39277;DHT22;63149;48.086;-1.606;2023-08-06T15:56:16;21.00;99.90
39277;DHT22;63149;48.086;-1.606;2023-08-06T15:58:43;21.00;99.90
39277;DHT22;63149;48.086;-1.606;2023-08-06T16:01:10;21.10;99.90
39277;DHT22;63149;48.086;-1.606;2023-08-06T16:03:37;21.20;99.90
39277;DHT22;63149;48.086;-1.606;2023-08-06T16:06:08;21.20;99.90
39277;DHT22;63149;48.086;-1.606;2023-08-06T16:08:36;21.20;99.90
39277;DHT22;63149;48.086;-1.606;2023-08-06T16:11:03;21.20;99.90
39277;DHT22;63149;48.086;-1.606;2023-08-06T16:13:32;21.30;99.90
39277;DHT22;63149;48.086;-1.606;2023-08-06T16:15:59;21.30;99.90
39277;DHT22;63149;48.086;-1.606;2023-08-06T16:18:26;21.30;99.90
39277;DHT22;63149;48.086;-1.606;2023-08-06T16:20:53;21.30;99.90
39277;DHT22;63149;48.086;-1.606;2023-08-06T16:23:22;21.30;99.90
39277;DHT22;63149;48.086;-1.606;2023-08-06T16:25:49;21.30;99.90
39277;DHT22;63149;48.086;-1.606;2023-08-06T16:28:16;21.20;99.90
39277;DHT22;63149;48.086;-1.606;2023-08-06T16:30:44;21.20;99.90
39277;DHT22;63149;48.086;-1.606;2023-08-06T16:33:11;21.10;99.90
39277;DHT22;63149;48.086;-1.606;2023-08-06T16:35:38;21.10;99.90
39277;DHT22;63149;48.086;-1.606;2023-08-06T16:38:05;21.00;99.90
39277;DHT22;63149;48.086;-1.606;2023-08-06T16:40:34;20.90;99.90
39277;DHT22;63149;48.086;-1.606;2023-08-06T16:43:01;20.90;99.90
39277;DHT22;63149;48.086;-1.606;2023-08-06T16:45:29;20.80;99.90
39277;DHT22;63149;48.086;-1.606;2023-08-06T16:47:57;20.80;99.90
39277;DHT22;63149;48.086;-1.606;2023-08-06T16:50:23;20.90;99.90
39277;DHT22;63149;48.086;-1.606;2023-08-06T16:52:50;20.90;99.90
39277;DHT22;63149;48.086;-1.606;2023-08-06T16:55:17;20.90;99.90
39277;DHT22;63149;48.086;-1.606;2023-08-06T16:57:46;20.80;99.90
39277;DHT22;63149;48.086;-1.606;2023-08-06T17:00:13;20.80;99.90
39277;DHT22;63149;48.086;-1.606;2023-08-06T17:02:40;20.70;99.90
39277;DHT22;63149;48.086;-1.606;2023-08-06T17:05:08;20.60;99.90
39277;DHT22;63149;48.086;-1.606;2023-08-06T17:07:34;20.60;99.90
39277;DHT22;63149;48.086;-1.606;2023-08-06T17:10:01;20.50;99.90
39277;DHT22;63149;48.086;-1.606;2023-08-06T17:12:29;20.50;99.90
39277;DHT22;63149;48.086;-1.606;2023-08-06T17:14:57;20.50;99.90
39277;DHT22;63149;48.086;-1.606;2023-08-06T17:17:25;20.50;99.90
39277;DHT22;63149;48.086;-1.606;2023-08-06T17:19:52;20.50;99.90
39277;DHT22;63149;48.086;-1.606;2023-08-06T17:22:19;20.50;99.90
39277;DHT22;63149;48.086;-1.606;2023-08-06T17:24:46;20.50;99.90
39277;DHT22;63149;48.086;-1.606;2023-08-06T17:27:13;20.50;99.90
39277;DHT22;63149;48.086;-1.606;2023-08-06T17:29:39;20.50;99.90
39277;DHT22;63149;48.086;-1.606;2023-08-06T17:32:08;20.40;99.90
39277;DHT22;63149;48.086;-1.606;2023-08-06T17:34:37;20.40;99.90
39277;DHT22;63149;48.086;-1.606;2023-08-06T17:37:04;20.30;99.90
39277;DHT22;63149;48.086;-1.606;2023-08-06T17:39:31;20.20;99.90
39277;DHT22;63149;48.086;-1.606;2023-08-06T17:41:58;20.20;99.90
39277;DHT22;63149;48.086;-1.606;2023-08-06T17:44:28;20.20;99.90
39277;DHT22;63149;48.086;-1.606;2023-08-06T17:46:55;20.20;99.90
39277;DHT22;63149;48.086;-1.606;2023-08-06T17:49:24;20.10;99.90
39277;DHT22;63149;48.086;-1.606;2023-08-06T17:51:51;20.10;99.90
39277;DHT22;63149;48.086;-1.606;2023-08-06T17:54:18;20.10;99.90
39277;DHT22;63149;48.086;-1.606;2023-08-06T17:56:45;20.10;99.90
39277;DHT22;63149;48.086;-1.606;2023-08-06T17:59:12;20.00;99.90
39277;DHT22;63149;48.086;-1.606;2023-08-06T18:01:39;19.90;99.90
39277;DHT22;63149;48.086;-1.606;2023-08-06T18:04:06;19.80;99.90
39277;DHT22;63149;48.086;-1.606;2023-08-06T18:06:35;19.80;99.90
39277;DHT22;63149;48.086;-1.606;2023-08-06T18:09:02;19.80;99.90
39277;DHT22;63149;48.086;-1.606;2023-08-06T18:11:29;19.70;99.90
39277;DHT22;63149;48.086;-1.606;2023-08-06T18:13:56;19.70;99.90
39277;DHT22;63149;48.086;-1.606;2023-08-06T18:16:23;19.60;99.90
39277;DHT22;63149;48.086;-1.606;2023-08-06T18:18:50;19.60;99.90
39277;DHT22;63149;48.086;-1.606;2023-08-06T18:21:19;19.50;99.90
39277;DHT22;63149;48.086;-1.606;2023-08-06T18:23:48;19.50;99.90
39277;DHT22;63149;48.086;-1.606;2023-08-06T18:26:14;19.50;99.90
39277;DHT22;63149;48.086;-1.606;2023-08-06T18:28:41;19.40;99.90
39277;DHT22;63149;48.086;-1.606;2023-08-06T18:31:10;19.30;99.90
39277;DHT22;63149;48.086;-1.606;2023-08-06T18:33:37;19.30;99.90
39277;DHT22;63149;48.086;-1.606;2023-08-06T18:36:05;19.30;99.90
39277;DHT22;63149;48.086;-1.606;2023-08-06T18:38:32;19.30;99.90
39277;DHT22;63149;48.086;-1.606;2023-08-06T18:41:00;19.20;99.90
39277;DHT22;63149;48.086;-1.606;2023-08-06T18:43:27;19.20;99.90
39277;DHT22;63149;48.086;-1.606;2023-08-06T18:45:55;19.10;99.90
39277;DHT22;63149;48.086;-1.606;2023-08-06T18:48:23;19.10;99.90
39277;DHT22;63149;48.086;-1.606;2023-08-06T18:50:50;19.10;99.90
39277;DHT22;63149;48.086;-1.606;2023-08-06T18:53:18;19.00;99.90
39277;DHT22;63149;48.086;-1.606;2023-08-06T18:55:47;18.90;99.90
39277;DHT22;63149;48.086;-1.606;2023-08-06T18:58:16;18.90;99.90
39277;DHT22;63149;48.086;-1.606;2023-08-06T19:00:43;18.90;99.90
39277;DHT22;63149;48.086;-1.606;2023-08-06T19:03:10;18.90;99.90
39277;DHT22;63149;48.086;-1.606;2023-08-06T19:05:38;18.80;99.90
39277;DHT22;63149;48.086;-1.606;2023-08-06T19:08:06;18.80;99.90
39277;DHT22;63149;48.086;-1.606;2023-08-06T19:10:33;18.70;99.90
39277;DHT22;63149;48.086;-1.606;2023-08-06T19:13:06;18.70;99.90
39277;DHT22;63149;48.086;-1.606;2023-08-06T19:15:35;18.60;99.90
39277;DHT22;63149;48.086;-1.606;2023-08-06T19:18:02;18.50;99.90
39277;DHT22;63149;48.086;-1.606;2023-08-06T19:20:29;18.50;99.90
39277;DHT22;63149;48.086;-1.606;2023-08-06T19:22:56;18.40;99.90
39277;DHT22;63149;48.086;-1.606;2023-08-06T19:25:23;18.40;99.90
39277;DHT22;63149;48.086;-1.606;2023-08-06T19:27:50;18.30;99.90
39277;DHT22;63149;48.086;-1.606;2023-08-06T19:30:17;18.30;99.90
39277;DHT22;63149;48.086;-1.606;2023-08-06T19:32:45;18.20;99.90
39277;DHT22;63149;48.086;-1.606;2023-08-06T19:35:12;18.10;99.90
39277;DHT22;63149;48.086;-1.606;2023-08-06T19:37:39;18.10;99.90
39277;DHT22;63149;48.086;-1.606;2023-08-06T19:40:07;18.00;99.90
39277;DHT22;63149;48.086;-1.606;2023-08-06T19:42:35;18.00;99.90
39277;DHT22;63149;48.086;-1.606;2023-08-06T19:45:05;18.00;99.90
39277;DHT22;63149;48.086;-1.606;2023-08-06T19:47:33;17.90;99.90
39277;DHT22;63149;48.086;-1.606;2023-08-06T19:50:02;17.90;99.90
39277;DHT22;63149;48.086;-1.606;2023-08-06T19:52:29;17.90;99.90
39277;DHT22;63149;48.086;-1.606;2023-08-06T19:54:55;17.80;99.90
39277;DHT22;63149;48.086;-1.606;2023-08-06T19:57:22;17.70;99.90
39277;DHT22;63149;48.086;-1.606;2023-08-06T19:59:50;17.70;99.90
39277;DHT22;63149;48.086;-1.606;2023-08-06T20:02:17;17.60;99.90
39277;DHT22;63149;48.086;-1.606;2023-08-06T20:04:44;17.60;99.90
39277;DHT22;63149;48.086;-1.606;2023-08-06T20:07:12;17.50;99.90
39277;DHT22;63149;48.086;-1.606;2023-08-06T20:09:39;17.50;99.90
39277;DHT22;63149;48.086;-1.606;2023-08-06T20:12:07;17.50;99.90
39277;DHT22;63149;48.086;-1.606;2023-08-06T20:14:34;17.50;99.90
39277;DHT22;63149;48.086;-1.606;2023-08-06T20:17:04;17.40;99.90
39277;DHT22;63149;48.086;-1.606;2023-08-06T20:19:31;17.40;99.90